Time;durP1;ratioP1;P1;durP2;ratioP2;P2;SDS_P1;SDS_P2;PMS_P1;PMS_P2;Temp;Humidity;BMP_temperature;BMP_pressure;BME280_temperature;BME280_humidity;BME280_pressure;Samples;Min_cycle;Max_cycle;Signal;HPM_P1;HPM_P2
2021/12/18 00:00:51;;;;;;;;;;;;;;;5.31;60.05;101077.34;4358301;32;34543;-55
2021/12/18 00:03:19;;;;;;;;;;;;;;;5.20;60.16;101063.56;4358759;32;34754;-55
2021/12/18 00:05:46;;;;;;;;;;;;;;;5.10;60.51;101073.34;4358333;32;33451;-55
2021/12/18 00:08:13;;;;;;;;;;;;;;;5.04;61.09;101076.09;4358898;32;34066;-55
2021/12/18 00:10:41;;;;;;;;;;;;;;;5.12;61.07;101083.81;4358473;32;34345;-55
2021/12/18 00:13:08;;;;;;;;;;;;;;;4.97;61.20;101084.94;4358361;32;35075;-55
2021/12/18 00:15:35;;;;;;;;;;;;;;;5.03;61.01;101083.97;4358519;32;34345;-56
2021/12/18 00:18:03;;;;;;;;;;;;;;;4.98;61.48;101084.03;4358438;32;34264;-55
2021/12/18 00:20:30;;;;;;;;;;;;;;;5.19;60.56;101079.31;4358737;32;34474;-55
2021/12/18 00:22:58;;;;;;;;;;;;;;;4.93;61.15;101091.13;4358352;32;34177;-55
2021/12/18 00:25:25;;;;;;;;;;;;;;;5.09;60.83;101094.31;4358535;32;34145;-55
2021/12/18 00:27:52;;;;;;;;;;;;;;;5.28;60.22;101089.62;4358222;32;33793;-56
2021/12/18 00:30:20;;;;;;;;;;;;;;;5.06;60.92;101091.75;4358277;32;35560;-55
2021/12/18 00:32:47;;;;;;;;;;;;;;;4.98;61.50;101093.66;4358259;32;34946;-55
2021/12/18 00:35:15;;;;;;;;;;;;;;;4.79;62.07;101091.37;4358043;32;32900;-56
2021/12/18 00:37:42;;;;;;;;;;;;;;;4.83;62.17;101095.66;4358484;32;34296;-55
2021/12/18 00:40:16;;;;;;;;;;;;;;;5.06;61.39;101099.59;4357931;32;34794;-55
2021/12/18 00:42:50;;;;;;;;;;;;;;;5.07;61.22;101104.81;4358386;32;33870;-55
2021/12/18 00:45:18;;;;;;;;;;;;;;;4.84;62.12;101107.84;4357925;32;33800;-55
2021/12/18 00:47:45;;;;;;;;;;;;;;;5.11;61.01;101097.78;4358612;32;33807;-55
2021/12/18 00:50:20;;;;;;;;;;;;;;;5.12;61.16;101099.53;4360187;32;34877;-55
2021/12/18 00:52:47;;;;;;;;;;;;;;;4.84;62.05;101091.28;4359873;32;33968;-55
2021/12/18 00:55:15;;;;;;;;;;;;;;;4.81;62.36;101094.81;4360487;32;32819;-56
2021/12/18 00:57:43;;;;;;;;;;;;;;;5.02;61.63;101096.22;4359586;32;34525;-55
2021/12/18 01:00:14;;;;;;;;;;;;;;;4.80;62.79;101095.69;4359813;32;35548;-55
2021/12/18 01:02:44;;;;;;;;;;;;;;;4.73;63.03;101092.34;4360066;32;33943;-55
2021/12/18 01:05:11;;;;;;;;;;;;;;;4.89;62.57;101098.16;4359686;32;34301;-55
2021/12/18 01:07:39;;;;;;;;;;;;;;;4.84;62.67;101091.28;4359997;32;34912;-55
2021/12/18 01:12:41;;;;;;;;;;;;;;;4.87;62.82;101099.94;4360303;32;34932;-55
2021/12/18 01:15:18;;;;;;;;;;;;;;;4.95;62.64;101105.06;4359862;32;33205;-55
2021/12/18 01:23:17;;;;;;;;;;;;;;;4.93;62.75;101104.22;4359581;32;34190;-55
2021/12/18 01:25:44;;;;;;;;;;;;;;;4.67;63.92;101116.00;4359831;32;33762;-55
2021/12/18 01:28:12;;;;;;;;;;;;;;;4.67;64.13;101113.38;4359686;32;33762;-55
2021/12/18 01:30:39;;;;;;;;;;;;;;;4.75;63.86;101115.88;4359525;32;35713;-55
2021/12/18 01:33:06;;;;;;;;;;;;;;;4.59;64.56;101123.06;4359776;32;34298;-55
2021/12/18 01:35:33;;;;;;;;;;;;;;;4.49;64.79;101127.56;4359536;32;33249;-55
2021/12/18 01:38:01;;;;;;;;;;;;;;;4.66;64.65;101139.56;4359870;32;34608;-56
2021/12/18 01:40:29;;;;;;;;;;;;;;;4.45;65.06;101133.75;4359590;32;35226;-55
2021/12/18 01:45:34;;;;;;;;;;;;;;;4.69;64.31;101140.38;4359453;32;33881;-55
2021/12/18 01:53:34;;;;;;;;;;;;;;;5.02;63.32;101138.09;4359107;32;33825;-55
2021/12/18 01:56:02;;;;;;;;;;;;;;;5.11;63.21;101139.69;4359575;32;33781;-55
2021/12/18 01:58:29;;;;;;;;;;;;;;;5.07;63.17;101153.72;4359253;32;34927;-55
2021/12/18 02:00:58;;;;;;;;;;;;;;;5.01;63.26;101153.81;4359396;32;36333;-57
2021/12/18 02:03:27;;;;;;;;;;;;;;;5.36;62.18;101149.72;4359459;32;34844;-55
2021/12/18 02:05:54;;;;;;;;;;;;;;;5.25;62.18;101144.66;4359102;32;33331;-56
2021/12/18 02:08:23;;;;;;;;;;;;;;;4.97;62.95;101144.28;4359717;32;35096;-55
2021/12/18 02:11:02;;;;;;;;;;;;;;;5.05;62.83;101140.62;4359230;32;34856;-55
2021/12/18 02:21:37;;;;;;;;;;;;;;;5.15;62.10;101162.28;4359597;32;34479;-55
2021/12/18 02:24:04;;;;;;;;;;;;;;;5.10;62.42;101162.37;4358898;32;34497;-55
2021/12/18 02:26:31;;;;;;;;;;;;;;;5.12;62.23;101170.22;4359404;32;32965;-56
2021/12/18 02:29:02;;;;;;;;;;;;;;;4.91;62.96;101167.06;4359215;32;34636;-55
2021/12/18 02:31:29;;;;;;;;;;;;;;;4.98;62.73;101162.56;4359213;32;34733;-55
2021/12/18 02:33:57;;;;;;;;;;;;;;;4.98;62.48;101174.81;4359489;32;34545;-55
2021/12/18 02:36:25;;;;;;;;;;;;;;;4.70;63.60;101168.25;4359021;32;32752;-55
2021/12/18 02:43:52;;;;;;;;;;;;;;;4.96;62.70;101169.59;4359118;32;34146;-55
2021/12/18 02:46:20;;;;;;;;;;;;;;;4.80;63.03;101176.81;4359226;32;32825;-55
2021/12/18 02:48:48;;;;;;;;;;;;;;;4.89;62.76;101186.31;4359150;32;33857;-55
2021/12/18 02:51:16;;;;;;;;;;;;;;;4.96;62.65;101187.06;4359277;32;34804;-55
2021/12/18 02:53:44;;;;;;;;;;;;;;;5.22;62.19;101194.50;4358645;32;34439;-55
2021/12/18 02:56:12;;;;;;;;;;;;;;;5.25;61.54;101197.94;4359357;32;33159;-55
2021/12/18 02:58:40;;;;;;;;;;;;;;;5.11;62.13;101187.66;4358883;32;34071;-55
2021/12/18 03:01:09;;;;;;;;;;;;;;;5.06;62.26;101184.28;4358919;32;34640;-55
2021/12/18 03:03:39;;;;;;;;;;;;;;;4.85;62.87;101172.41;4359051;32;34430;-55
2021/12/18 03:06:31;;;;;;;;;;;;;;;4.89;62.66;101176.69;4358813;32;33175;-56
2021/12/18 03:25:18;;;;;;;;;;;;;;;5.07;62.08;101201.69;4358801;32;34004;-56
2021/12/18 03:27:46;;;;;;;;;;;;;;;5.09;61.91;101199.06;4358894;32;33758;-56
2021/12/18 03:30:13;;;;;;;;;;;;;;;5.11;61.70;101213.84;4359093;32;34486;-56
2021/12/18 03:32:41;;;;;;;;;;;;;;;5.03;61.85;101207.88;4358489;32;34709;-56
2021/12/18 03:35:08;;;;;;;;;;;;;;;5.03;62.04;101214.88;4358979;32;35210;-57
2021/12/18 03:37:36;;;;;;;;;;;;;;;5.22;61.08;101215.44;4358762;32;34253;-56
2021/12/18 03:40:07;;;;;;;;;;;;;;;5.17;61.42;101214.66;4358759;32;34934;-55
2021/12/18 03:42:34;;;;;;;;;;;;;;;4.93;61.94;101219.41;4358800;32;34348;-56
2021/12/18 03:45:02;;;;;;;;;;;;;;;4.87;62.17;101219.50;4358485;32;35067;-56
2021/12/18 03:47:29;;;;;;;;;;;;;;;5.15;61.44;101225.12;4359296;32;33103;-56
2021/12/18 03:49:57;;;;;;;;;;;;;;;4.86;62.20;101210.75;4358667;32;34736;-56
2021/12/18 03:52:24;;;;;;;;;;;;;;;5.03;61.89;101214.88;4358758;32;35266;-56
2021/12/18 03:54:51;;;;;;;;;;;;;;;5.20;61.31;101218.09;4358396;32;35089;-56
2021/12/18 03:57:19;;;;;;;;;;;;;;;5.15;61.21;101213.81;4358681;32;34309;-56
2021/12/18 03:59:46;;;;;;;;;;;;;;;5.06;61.33;101214.81;4358655;32;33010;-56
2021/12/18 04:02:13;;;;;;;;;;;;;;;5.03;61.57;101217.50;4358624;32;34838;-56
2021/12/18 04:04:40;;;;;;;;;;;;;;;5.09;61.59;101225.25;4358829;32;34074;-56
2021/12/18 04:07:08;;;;;;;;;;;;;;;5.12;61.37;101230.44;4358344;32;33237;-56
2021/12/18 04:09:35;;;;;;;;;;;;;;;4.88;62.09;101231.66;4358761;32;34989;-56
2021/12/18 04:12:03;;;;;;;;;;;;;;;4.87;62.23;101216.87;4358217;32;34848;-56
2021/12/18 04:14:30;;;;;;;;;;;;;;;5.02;61.75;101213.13;4358276;32;33822;-56
2021/12/18 04:16:57;;;;;;;;;;;;;;;5.19;60.87;101200.63;4358687;32;33560;-56
2021/12/18 04:19:25;;;;;;;;;;;;;;;4.83;62.19;101208.19;4358522;32;34014;-56
2021/12/18 04:21:52;;;;;;;;;;;;;;;5.02;61.66;101194.81;4357584;32;34229;-56
2021/12/18 04:24:19;;;;;;;;;;;;;;;4.88;61.97;101195.87;4358038;32;34404;-56
2021/12/18 04:26:46;;;;;;;;;;;;;;;5.03;61.64;101212.25;4358513;32;34319;-56
2021/12/18 04:29:13;;;;;;;;;;;;;;;4.95;61.80;101217.63;4358304;32;33661;-56
2021/12/18 04:31:41;;;;;;;;;;;;;;;5.04;61.30;101221.81;4358354;32;34681;-57
2021/12/18 04:34:08;;;;;;;;;;;;;;;5.04;61.10;101219.22;4358172;32;35160;-56
2021/12/18 04:36:35;;;;;;;;;;;;;;;4.98;61.52;101217.53;4358244;32;34218;-56
2021/12/18 04:39:03;;;;;;;;;;;;;;;4.98;61.46;101224.53;4358404;32;34576;-56
2021/12/18 04:41:40;;;;;;;;;;;;;;;5.00;61.65;101231.50;4357954;32;35260;-56
2021/12/18 04:44:07;;;;;;;;;;;;;;;4.75;62.32;101236.25;4358574;32;34645;-56
2021/12/18 04:46:35;;;;;;;;;;;;;;;4.79;61.88;101237.94;4357949;32;34436;-57
2021/12/18 04:49:02;;;;;;;;;;;;;;;4.90;61.70;101236.03;4358157;32;33538;-56
2021/12/18 04:51:29;;;;;;;;;;;;;;;4.86;61.73;101250.00;4357976;32;35305;-56
2021/12/18 04:53:56;;;;;;;;;;;;;;;4.77;61.96;101249.28;4357660;32;35845;-56
2021/12/18 04:56:24;;;;;;;;;;;;;;;4.47;62.88;101274.97;4358249;32;35231;-56
2021/12/18 04:58:51;;;;;;;;;;;;;;;4.95;61.40;101266.50;4357635;32;34407;-56
2021/12/18 05:01:19;;;;;;;;;;;;;;;4.99;61.23;101276.03;4358087;32;34541;-56
2021/12/18 05:03:47;;;;;;;;;;;;;;;4.82;61.44;101269.28;4357670;32;34053;-56
2021/12/18 05:06:15;;;;;;;;;;;;;;;4.95;61.01;101277.81;4357713;32;33758;-56
2021/12/18 05:08:42;;;;;;;;;;;;;;;4.95;61.20;101279.59;4357911;32;34553;-56
2021/12/18 05:11:09;;;;;;;;;;;;;;;4.71;61.76;101293.00;4357560;32;35066;-56
2021/12/18 05:13:36;;;;;;;;;;;;;;;4.71;61.55;101298.22;4358033;32;35049;-55
2021/12/18 05:16:04;;;;;;;;;;;;;;;4.97;60.98;101304.00;4357403;32;33479;-56
2021/12/18 05:18:31;;;;;;;;;;;;;;;4.83;61.13;101307.66;4357904;32;33577;-56
2021/12/18 05:20:58;;;;;;;;;;;;;;;4.73;61.50;101301.69;4357640;32;34712;-56
2021/12/18 05:23:25;;;;;;;;;;;;;;;4.66;61.94;101318.34;4357668;32;34618;-56
2021/12/18 05:25:53;;;;;;;;;;;;;;;5.01;60.28;101310.91;4357873;32;33068;-55
2021/12/18 05:28:20;;;;;;;;;;;;;;;4.67;61.45;101325.31;4357481;32;34143;-56
2021/12/18 05:30:47;;;;;;;;;;;;;;;4.71;61.23;101321.78;4357722;32;34764;-56
2021/12/18 05:33:14;;;;;;;;;;;;;;;4.76;61.37;101318.22;4357431;32;34042;-56
2021/12/18 05:35:42;;;;;;;;;;;;;;;4.68;61.37;101323.56;4360004;32;34307;-56
2021/12/18 05:38:09;;;;;;;;;;;;;;;4.67;61.53;101325.31;4359492;32;34328;-56
2021/12/18 05:40:40;;;;;;;;;;;;;;;4.42;62.02;101324.75;4359575;32;35642;-56
2021/12/18 05:43:08;;;;;;;;;;;;;;;4.79;60.91;101324.28;4359435;32;33916;-56
2021/12/18 05:45:36;;;;;;;;;;;;;;;4.31;62.31;101321.37;4359487;32;33434;-56
2021/12/18 05:48:03;;;;;;;;;;;;;;;4.32;62.47;101315.25;4359856;32;34179;-56
2021/12/18 05:50:31;;;;;;;;;;;;;;;4.31;62.27;101335.31;4357936;32;35642;-56
2021/12/18 05:52:59;;;;;;;;;;;;;;;4.26;62.84;101334.50;4359658;32;35083;-56
2021/12/18 05:55:28;;;;;;;;;;;;;;;4.27;62.73;101333.62;4359387;32;33693;-56
2021/12/18 05:57:55;;;;;;;;;;;;;;;4.37;62.45;101336.16;4359652;32;34109;-56
2021/12/18 06:00:23;;;;;;;;;;;;;;;4.57;61.92;101341.13;4359291;32;35078;-56
2021/12/18 06:02:50;;;;;;;;;;;;;;;4.58;61.68;101341.13;4359271;32;35194;-56
2021/12/18 06:05:17;;;;;;;;;;;;;;;4.52;61.63;101341.19;4359657;32;33647;-56
2021/12/18 06:07:55;;;;;;;;;;;;;;;4.51;61.60;101337.69;4359125;32;33780;-56
2021/12/18 06:10:23;;;;;;;;;;;;;;;4.08;62.83;101338.16;4359497;32;34201;-56
2021/12/18 06:12:51;;;;;;;;;;;;;;;4.13;62.79;101336.38;4359470;32;34850;-56
2021/12/18 06:15:18;;;;;;;;;;;;;;;4.05;62.85;101337.34;4359385;32;34598;-56
2021/12/18 06:17:45;;;;;;;;;;;;;;;3.90;63.56;101341.84;4359373;32;34175;-56
2021/12/18 06:20:13;;;;;;;;;;;;;;;3.95;63.63;101344.41;4359190;32;34483;-56
2021/12/18 06:22:40;;;;;;;;;;;;;;;3.91;63.39;101345.31;4359491;32;34270;-56
2021/12/18 06:25:07;;;;;;;;;;;;;;;4.16;62.87;101350.31;4359202;32;33769;-55
2021/12/18 06:27:35;;;;;;;;;;;;;;;3.87;63.50;101343.59;4359471;32;34077;-56
2021/12/18 06:30:02;;;;;;;;;;;;;;;4.14;62.81;101352.94;4359341;32;34795;-56
2021/12/18 06:32:30;;;;;;;;;;;;;;;4.00;62.86;101342.63;4358959;32;35081;-56
2021/12/18 06:34:57;;;;;;;;;;;;;;;4.06;62.86;101345.16;4359134;32;34235;-56
2021/12/18 06:37:24;;;;;;;;;;;;;;;4.36;61.96;101343.09;4359065;32;34724;-55
2021/12/18 06:39:51;;;;;;;;;;;;;;;4.42;61.96;101343.06;4359256;32;34268;-56
2021/12/18 06:42:36;;;;;;;;;;;;;;;4.12;62.52;101350.31;4358732;32;35170;-56
2021/12/18 06:45:03;;;;;;;;;;;;;;;4.15;62.35;101362.53;4357298;32;33114;-56
2021/12/18 06:47:30;;;;;;;;;;;;;;;4.22;62.20;101363.31;4359184;32;33688;-56
2021/12/18 06:49:58;;;;;;;;;;;;;;;4.45;61.49;101363.94;4358983;32;33612;-56
2021/12/18 06:52:25;;;;;;;;;;;;;;;4.02;63.15;101377.44;4359146;32;33795;-56
2021/12/18 06:54:52;;;;;;;;;;;;;;;4.09;62.75;101378.25;4358802;32;33695;-56
2021/12/18 06:57:22;;;;;;;;;;;;;;;4.29;62.52;101380.69;4345847;32;33717;-55
2021/12/18 06:59:50;;;;;;;;;;;;;;;3.97;63.49;101381.84;4358947;32;35581;-55
2021/12/18 07:02:18;;;;;;;;;;;;;;;4.05;63.35;101377.44;4359322;32;34591;-56
2021/12/18 07:04:45;;;;;;;;;;;;;;;3.99;63.38;101368.75;4358967;32;34288;-56
2021/12/18 07:07:12;;;;;;;;;;;;;;;4.10;63.24;101375.63;4358861;32;34073;-56
2021/12/18 07:09:39;;;;;;;;;;;;;;;4.27;62.60;101375.47;4358617;32;34484;-55
2021/12/18 07:12:09;;;;;;;;;;;;;;;4.35;62.22;101380.62;4365665;32;34041;-55
2021/12/18 07:14:37;;;;;;;;;;;;;;;4.00;63.55;101373.13;4359294;32;34471;-55
2021/12/18 07:17:05;;;;;;;;;;;;;;;4.15;63.02;101372.97;4358575;32;34998;-55
2021/12/18 07:19:32;;;;;;;;;;;;;;;4.36;62.51;101377.09;4359034;32;34467;-55
2021/12/18 07:21:59;;;;;;;;;;;;;;;4.06;63.37;101363.47;4359035;32;34287;-55
2021/12/18 07:24:26;;;;;;;;;;;;;;;3.91;63.94;101361.84;4359112;32;33106;-55
2021/12/18 07:26:53;;;;;;;;;;;;;;;4.16;63.53;101361.63;4357817;32;34046;-55
2021/12/18 07:29:21;;;;;;;;;;;;;;;4.08;63.76;101361.69;4354906;32;34779;-56
2021/12/18 07:31:49;;;;;;;;;;;;;;;3.88;64.36;101361.91;4358757;32;34326;-55
2021/12/18 07:34:16;;;;;;;;;;;;;;;4.03;64.02;101370.47;4358069;32;34805;-56
2021/12/18 07:36:44;;;;;;;;;;;;;;;4.07;63.92;101374.78;4371591;32;34372;-55
2021/12/18 07:39:11;;;;;;;;;;;;;;;3.96;64.48;101381.88;4372929;32;34670;-55
2021/12/18 07:41:38;;;;;;;;;;;;;;;3.96;64.34;101380.13;4373491;32;34980;-55
2021/12/18 07:44:07;;;;;;;;;;;;;;;4.07;64.24;101393.06;4362632;32;32779;-55
2021/12/18 07:46:35;;;;;;;;;;;;;;;4.14;63.90;101390.41;4357656;32;33976;-55
2021/12/18 07:49:03;;;;;;;;;;;;;;;4.17;64.08;101402.59;4372329;32;35836;-55
2021/12/18 07:51:31;;;;;;;;;;;;;;;4.22;63.96;101407.78;4372976;32;34360;-55
2021/12/18 07:53:58;;;;;;;;;;;;;;;4.16;64.13;101411.31;4357087;32;33278;-55
2021/12/18 07:56:25;;;;;;;;;;;;;;;4.34;63.92;101410.25;4358282;32;34286;-55
2021/12/18 07:58:53;;;;;;;;;;;;;;;4.36;63.80;101407.63;4358227;32;34612;-55
2021/12/18 08:01:20;;;;;;;;;;;;;;;4.26;63.87;101420.78;4358190;32;35261;-55
2021/12/18 08:03:48;;;;;;;;;;;;;;;4.59;62.88;101423.94;4357879;32;34758;-55
2021/12/18 08:06:16;;;;;;;;;;;;;;;4.50;63.54;101427.53;4358219;32;34996;-55
2021/12/18 08:08:43;;;;;;;;;;;;;;;4.37;63.90;101412.00;4357756;32;34131;-55
2021/12/18 08:11:10;;;;;;;;;;;;;;;4.42;63.88;101404.94;4358394;32;34104;-56
2021/12/18 08:13:37;;;;;;;;;;;;;;;4.56;63.36;101399.59;4356908;32;34020;-55
2021/12/18 08:16:05;;;;;;;;;;;;;;;4.49;63.32;101404.88;4368805;32;33971;-55
2021/12/18 08:18:32;;;;;;;;;;;;;;;4.56;63.28;101412.69;4360274;32;35143;-55
2021/12/18 08:20:59;;;;;;;;;;;;;;;4.62;62.99;101405.63;4356827;32;35302;-55
2021/12/18 08:23:26;;;;;;;;;;;;;;;4.58;62.97;101418.75;4365568;32;33657;-55
2021/12/18 08:25:54;;;;;;;;;;;;;;;4.80;62.42;101412.38;4358058;32;33743;-55
2021/12/18 08:28:21;;;;;;;;;;;;;;;4.76;62.64;101412.44;4359758;32;34765;-56
2021/12/18 08:30:49;;;;;;;;;;;;;;;4.72;62.42;101409.84;4363625;32;34047;-55
2021/12/18 08:33:16;;;;;;;;;;;;;;;4.68;62.79;101397.69;4373016;32;33057;-55
2021/12/18 08:35:43;;;;;;;;;;;;;;;4.62;62.95;101412.59;4361403;32;35058;-55
2021/12/18 08:38:10;;;;;;;;;;;;;;;4.78;62.64;101408.06;4357263;32;34664;-55
2021/12/18 08:40:38;;;;;;;;;;;;;;;4.97;62.07;101411.31;4360763;32;34020;-55
2021/12/18 08:43:05;;;;;;;;;;;;;;;4.81;62.24;101416.75;4357490;32;34065;-56
2021/12/18 08:45:32;;;;;;;;;;;;;;;5.05;61.36;101414.69;4371228;32;34936;-55
2021/12/18 08:48:00;;;;;;;;;;;;;;;4.87;62.07;101407.94;4372560;32;35421;-55
2021/12/18 08:50:27;;;;;;;;;;;;;;;5.09;61.26;101413.78;4363342;32;34138;-56
2021/12/18 08:52:54;;;;;;;;;;;;;;;5.22;60.96;101412.72;4355989;32;33763;-56
2021/12/18 08:55:22;;;;;;;;;;;;;;;4.94;61.32;101406.97;4356705;32;33921;-55
2021/12/18 08:57:49;;;;;;;;;;;;;;;5.10;60.66;101411.16;4357516;32;35695;-55
2021/12/18 09:00:18;;;;;;;;;;;;;;;5.09;60.99;101412.00;4356638;32;34204;-55
2021/12/18 09:02:47;;;;;;;;;;;;;;;5.20;60.46;101411.03;4356683;32;33637;-56
2021/12/18 09:05:14;;;;;;;;;;;;;;;5.29;60.07;101410.88;4356818;32;33653;-55
2021/12/18 09:07:41;;;;;;;;;;;;;;;5.31;59.75;101409.09;4356808;32;34328;-56
2021/12/18 09:10:09;;;;;;;;;;;;;;;5.15;60.49;101412.84;4358941;32;34635;-55
2021/12/18 09:12:36;;;;;;;;;;;;;;;5.29;59.93;101413.50;4359079;32;34053;-55
2021/12/18 09:15:04;;;;;;;;;;;;;;;5.52;58.96;101397.44;4356476;32;33863;-55
2021/12/18 09:17:31;;;;;;;;;;;;;;;5.46;59.16;101400.16;4344301;33;34784;-55
2021/12/18 09:19:59;;;;;;;;;;;;;;;5.58;58.50;101399.97;4350615;32;35278;-55
2021/12/18 09:22:26;;;;;;;;;;;;;;;5.67;58.26;101394.59;4358879;32;33786;-55
2021/12/18 09:24:54;;;;;;;;;;;;;;;5.74;58.16;101392.75;4358690;32;34897;-56
2021/12/18 09:27:22;;;;;;;;;;;;;;;5.62;58.06;101388.59;4350679;32;35303;-56
2021/12/18 09:29:49;;;;;;;;;;;;;;;6.12;62.96;101392.13;4358226;32;35201;-56
2021/12/18 09:32:16;;;;;;;;;;;;;;;6.41;65.08;101393.37;4357967;32;34014;-56
2021/12/18 09:34:44;;;;;;;;;;;;;;;6.93;65.00;101401.12;4358524;32;34561;-56
2021/12/18 09:37:11;;;;;;;;;;;;;;;7.14;55.91;101392.78;4358051;32;35295;-55
2021/12/18 09:39:38;;;;;;;;;;;;;;;6.67;55.38;101382.37;4358931;32;34334;-56
2021/12/18 09:42:05;;;;;;;;;;;;;;;6.70;55.06;101391.94;4359416;32;33725;-56
2021/12/18 09:44:34;;;;;;;;;;;;;;;6.48;54.87;101384.50;4358868;32;34416;-56
2021/12/18 09:47:02;;;;;;;;;;;;;;;6.27;55.62;101408.50;4359141;32;34367;-55
2021/12/18 09:49:29;;;;;;;;;;;;;;;6.30;55.27;101400.56;4359550;32;34463;-56
2021/12/18 09:51:56;;;;;;;;;;;;;;;6.54;54.56;101406.28;4358540;32;33101;-55
2021/12/18 09:54:24;;;;;;;;;;;;;;;6.28;54.82;101395.38;4359749;32;33882;-56
2021/12/18 09:56:52;;;;;;;;;;;;;;;6.23;54.92;101396.34;4359315;32;34356;-56
2021/12/18 09:59:19;;;;;;;;;;;;;;;6.05;55.91;101387.03;4358895;32;33868;-56
2021/12/18 10:01:47;;;;;;;;;;;;;;;6.15;55.51;101388.59;4359052;32;33140;-55
2021/12/18 10:04:28;;;;;;;;;;;;;;;6.44;54.49;101379.34;4359318;32;34857;-56
2021/12/18 10:06:58;;;;;;;;;;;;;;;6.49;54.52;101377.47;4359130;32;34629;-55
2021/12/18 10:09:25;;;;;;;;;;;;;;;6.89;53.43;101382.78;4358957;32;34354;-55
2021/12/18 10:11:56;;;;;;;;;;;;;;;6.90;53.08;101383.66;4359202;32;34572;-55
2021/12/18 10:14:40;;;;;;;;;;;;;;;6.80;57.15;101387.38;4358637;32;35044;-56
2021/12/18 10:17:26;;;;;;;;;;;;;;;7.00;52.81;101381.69;4359076;32;35599;-55
2021/12/18 10:20:11;;;;;;;;;;;;;;;6.38;54.06;101375.06;4359150;32;34442;-55
2021/12/18 10:22:42;;;;;;;;;;;;;;;6.42;54.23;101375.87;4358516;32;33345;-55
2021/12/18 10:25:10;;;;;;;;;;;;;;;6.56;53.89;101368.59;4359183;32;33566;-56
2021/12/18 10:27:38;;;;;;;;;;;;;;;6.37;54.05;101373.31;4369060;32;35447;-55
2021/12/18 10:30:11;;;;;;;;;;;;;;;6.65;53.37;101375.41;4373666;32;34808;-56
2021/12/18 10:32:38;;;;;;;;;;;;;;;6.64;53.11;101376.31;4374152;32;33357;-56
2021/12/18 10:35:07;;;;;;;;;;;;;;;6.73;53.28;101367.38;4373213;32;34940;-56
2021/12/18 10:37:34;;;;;;;;;;;;;;;6.82;53.08;101364.56;4374206;32;35033;-56
2021/12/18 10:40:06;;;;;;;;;;;;;;;6.65;53.12;101343.91;4373778;32;34711;-56
2021/12/18 10:42:35;;;;;;;;;;;;;;;6.90;52.72;101352.13;4373701;32;33569;-57
2021/12/18 10:45:05;;;;;;;;;;;;;;;7.10;51.80;101346.47;4373565;32;34271;-56
2021/12/18 10:47:50;;;;;;;;;;;;;;;6.86;51.79;101335.59;4373750;32;34169;-56
2021/12/18 10:50:38;;;;;;;;;;;;;;;7.03;52.45;101337.84;4374030;32;34238;-56
2021/12/18 10:53:11;;;;;;;;;;;;;;;7.06;51.48;101332.53;4373986;32;33170;-56
2021/12/18 10:55:56;;;;;;;;;;;;;;;7.27;50.85;101317.19;4373533;32;35312;-56
2021/12/18 10:58:28;;;;;;;;;;;;;;;7.29;50.89;101311.00;4373690;32;34288;-56
2021/12/18 11:01:00;;;;;;;;;;;;;;;7.28;50.49;101311.00;4373396;32;34148;-56
2021/12/18 11:03:27;;;;;;;;;;;;;;;7.36;50.23;101319.56;4373802;32;33267;-55
2021/12/18 11:06:06;;;;;;;;;;;;;;;7.05;50.45;101304.53;4373363;32;34690;-56
2021/12/18 11:08:36;;;;;;;;;;;;;;;7.14;50.49;101308.72;4373637;32;35362;-56
2021/12/18 11:13:50;;;;;;;;;;;;;;;7.35;50.00;101291.59;4362897;32;33758;-56
2021/12/18 11:16:18;;;;;;;;;;;;;;;7.28;49.69;101301.37;4359051;32;34065;-56
2021/12/18 11:18:46;;;;;;;;;;;;;;;7.47;49.22;101283.38;4358264;32;34645;-56
2021/12/18 11:21:13;;;;;;;;;;;;;;;7.32;49.35;101270.63;4358523;32;35383;-55
2021/12/18 11:23:41;;;;;;;;;;;;;;;7.18;49.51;101255.19;4360556;32;33104;-56
2021/12/18 11:26:08;;;;;;;;;;;;;;;7.31;49.71;101266.28;4372337;32;34288;-56
2021/12/18 11:28:36;;;;;;;;;;;;;;;7.37;49.91;101266.12;4357337;32;34522;-56
2021/12/18 11:31:04;;;;;;;;;;;;;;;7.41;49.39;101259.91;4356245;32;33503;-57
2021/12/18 11:33:31;;;;;;;;;;;;;;;7.40;49.26;101257.28;4358932;32;33055;-56
2021/12/18 11:36:03;;;;;;;;;;;;;;;7.52;48.97;101250.87;4357738;32;34313;-56
2021/12/18 11:38:31;;;;;;;;;;;;;;;7.52;48.93;101261.38;4357008;32;34407;-56
2021/12/18 11:40:58;;;;;;;;;;;;;;;7.47;48.91;101251.00;4357292;32;35089;-56
2021/12/18 11:43:38;;;;;;;;;;;;;;;7.62;48.74;101247.97;4356606;32;33227;-56
2021/12/18 11:46:24;;;;;;;;;;;;;;;7.67;48.90;101238.19;4358427;32;34202;-57
2021/12/18 11:48:55;;;;;;;;;;;;;;;7.93;48.07;101254.16;4358171;32;34173;-56
2021/12/18 11:51:22;;;;;;;;;;;;;;;7.57;48.77;101251.63;4358074;32;33899;-56
2021/12/18 11:53:49;;;;;;;;;;;;;;;7.75;50.41;101261.63;4358377;32;32526;-56
2021/12/18 11:56:17;;;;;;;;;;;;;;;7.49;49.68;101236.03;4358060;32;34247;-56
2021/12/18 11:58:45;;;;;;;;;;;;;;;7.53;49.05;101244.72;4357976;32;34882;-56
2021/12/18 12:01:20;;;;;;;;;;;;;;;7.49;49.02;101244.78;4358055;32;34305;-56
2021/12/18 12:03:50;;;;;;;;;;;;;;;7.56;49.48;101242.00;4358576;32;33748;-56
2021/12/18 12:06:20;;;;;;;;;;;;;;;7.03;49.88;101238.03;4357647;32;33706;-56
2021/12/18 12:08:51;;;;;;;;;;;;;;;7.27;49.86;101235.75;4358295;32;34391;-56
2021/12/18 12:11:18;;;;;;;;;;;;;;;7.13;49.96;101229.94;4357701;32;34235;-56
2021/12/18 12:13:59;;;;;;;;;;;;;;;7.20;50.34;101224.50;4357377;32;33326;-56
2021/12/18 12:16:45;;;;;;;;;;;;;;;7.23;50.46;101232.31;4361275;32;34552;-56
2021/12/18 12:19:13;;;;;;;;;;;;;;;7.33;50.34;101229.44;4357088;32;34536;-56
2021/12/18 12:21:41;;;;;;;;;;;;;;;7.55;49.76;101229.78;4357997;32;34749;-56
2021/12/18 12:24:09;;;;;;;;;;;;;;;7.61;49.35;101237.50;4372509;32;33681;-56
2021/12/18 12:26:36;;;;;;;;;;;;;;;7.57;49.72;101238.47;4359008;32;34351;-56
2021/12/18 12:29:04;;;;;;;;;;;;;;;7.73;49.11;101244.19;4358113;32;35139;-56
2021/12/18 12:31:32;;;;;;;;;;;;;;;7.63;49.07;101235.69;4357165;32;34121;-56
2021/12/18 12:34:18;;;;;;;;;;;;;;;7.23;49.65;101241.94;4356456;32;33196;-56
2021/12/18 12:36:45;;;;;;;;;;;;;;;7.59;48.77;101240.16;4360334;32;34356;-55
2021/12/18 12:39:17;;;;;;;;;;;;;;;7.21;51.46;101239.38;4364622;32;34472;-56
2021/12/18 12:41:50;;;;;;;;;;;;;;;7.16;49.83;101233.34;4357185;32;34589;-56
2021/12/18 12:44:28;;;;;;;;;;;;;;;7.48;49.16;101229.94;4356589;32;33445;-56
2021/12/18 12:47:14;;;;;;;;;;;;;;;7.32;49.70;101241.72;4357666;32;34239;-56
2021/12/18 12:49:43;;;;;;;;;;;;;;;7.69;48.88;101241.62;4357500;32;34714;-56
2021/12/18 12:52:12;;;;;;;;;;;;;;;7.69;49.02;101243.41;4344231;32;32970;-55
2021/12/18 12:54:39;;;;;;;;;;;;;;;7.49;49.13;101236.03;4357605;32;34029;-56
2021/12/18 12:57:29;;;;;;;;;;;;;;;7.21;50.22;101234.13;4356868;32;33703;-56
2021/12/18 12:59:59;;;;;;;;;;;;;;;7.32;49.93;101233.84;4358107;32;34373;-56
2021/12/18 13:02:26;;;;;;;;;;;;;;;7.37;49.31;101236.38;4357284;32;34571;-56
2021/12/18 13:05:01;;;;;;;;;;;;;;;7.36;49.71;101232.84;4357398;32;32536;-56
2021/12/18 13:07:28;;;;;;;;;;;;;;;7.46;48.85;101247.50;4357551;32;33502;-56
2021/12/18 13:09:56;;;;;;;;;;;;;;;7.35;48.78;101244.28;4348023;32;35522;-56
2021/12/18 13:12:23;;;;;;;;;;;;;;;7.52;48.33;101242.97;4342594;33;35300;-55
2021/12/18 13:14:52;;;;;;;;;;;;;;;7.46;48.62;101241.38;4347533;32;81193;-56
2021/12/18 13:17:20;;;;;;;;;;;;;;;7.00;49.12;101227.63;4356899;32;35147;-56
2021/12/18 13:19:58;;;;;;;;;;;;;;;7.44;48.71;101216.87;4356638;32;34358;-56
2021/12/18 13:22:30;;;;;;;;;;;;;;;7.15;49.41;101213.22;4356890;32;34041;-55
2021/12/18 13:25:07;;;;;;;;;;;;;;;7.23;49.97;101211.28;4358109;32;33340;-55
2021/12/18 13:27:35;;;;;;;;;;;;;;;7.51;49.30;101218.47;4356263;32;34173;-56
2021/12/18 13:30:16;;;;;;;;;;;;;;;7.34;49.34;101231.19;4356484;32;34855;-56
2021/12/18 13:32:54;;;;;;;;;;;;;;;7.34;48.68;101221.53;4356488;32;34153;-56
2021/12/18 13:35:21;;;;;;;;;;;;;;;7.07;49.46;101217.81;4356518;32;33188;-56
2021/12/18 13:37:59;;;;;;;;;;;;;;;7.18;49.54;101223.66;4357010;32;34136;-56
2021/12/18 13:40:27;;;;;;;;;;;;;;;7.40;49.10;101225.75;4356699;32;34722;-56
2021/12/18 13:43:05;;;;;;;;;;;;;;;7.38;49.53;101217.91;4345640;32;34709;-56
2021/12/18 13:45:33;;;;;;;;;;;;;;;7.45;49.94;101208.12;4352269;32;33346;-56